Time;durP1;ratioP1;P1;durP2;ratioP2;P2;SDS_P1;SDS_P2;PMS_P1;PMS_P2;Temp;Humidity;BMP_temperature;BMP_pressure;BME280_temperature;BME280_humidity;BME280_pressure;Samples;Min_cycle;Max_cycle;Signal;HPM_P1;HPM_P2
2023/04/28 04:01:38;;;;;;;0.60;0.10;;;13.40;99.90;;;;;;5361102;23;20498;-71
2023/04/28 04:04:06;;;;;;;0.60;0.30;;;13.20;99.90;;;;;;4929004;29;20446;-72
2023/04/28 04:06:34;;;;;;;0.60;0.10;;;13.10;99.90;;;;;;4930352;29;20510;-71
2023/04/28 04:09:02;;;;;;;0.60;0.10;;;13.20;99.90;;;;;;4934421;29;20446;-71
2023/04/28 04:11:30;;;;;;;0.60;0.20;;;13.20;99.90;;;;;;4936324;29;20474;-71
2023/04/28 04:13:58;;;;;;;0.70;0.43;;;13.20;99.90;;;;;;4938517;29;20530;-70
2023/04/28 04:16:26;;;;;;;0.60;0.10;;;13.30;99.90;;;;;;4937983;29;20459;-70
2023/04/28 04:18:55;;;;;;;0.60;0.40;;;13.20;99.90;;;;;;4938108;29;20462;-70
2023/04/28 04:21:23;;;;;;;0.60;0.10;;;13.20;99.90;;;;;;4937908;29;20881;-70
2023/04/28 04:23:51;;;;;;;0.60;0.10;;;13.20;99.90;;;;;;4938399;29;20448;-70
2023/04/28 04:26:19;;;;;;;0.60;0.10;;;13.10;99.90;;;;;;4937514;29;21054;-70
2023/04/28 04:28:47;;;;;;;0.60;0.10;;;13.10;99.90;;;;;;4937882;29;20854;-70
2023/04/28 04:31:15;;;;;;;0.60;0.10;;;13.20;99.90;;;;;;4933077;29;20547;-71
2023/04/28 04:33:43;;;;;;;0.60;0.10;;;13.20;99.90;;;;;;4937913;29;20480;-70
2023/04/28 04:36:12;;;;;;;0.60;0.10;;;13.20;99.90;;;;;;4937481;29;20449;-71
2023/04/28 04:38:40;;;;;;;0.60;0.10;;;13.20;99.90;;;;;;4933998;29;20622;-70
2023/04/28 04:41:08;;;;;;;0.60;0.20;;;13.20;99.90;;;;;;4929457;29;20478;-70
2023/04/28 04:43:35;;;;;;;0.60;0.10;;;13.10;99.90;;;;;;4926365;29;20455;-71
2023/04/28 04:46:03;;;;;;;0.60;0.10;;;13.10;99.90;;;;;;4937527;29;20458;-71
2023/04/28 04:48:31;;;;;;;0.60;0.10;;;13.10;99.90;;;;;;4931287;29;20466;-71
2023/04/28 04:50:59;;;;;;;0.60;0.20;;;13.10;99.90;;;;;;4934176;29;20487;-71
2023/04/28 04:53:28;;;;;;;0.60;0.10;;;13.20;99.90;;;;;;4921573;29;20461;-69
2023/04/28 04:55:56;;;;;;;0.60;0.10;;;13.10;99.90;;;;;;4922193;29;20818;-70
2023/04/28 04:58:24;;;;;;;0.60;0.10;;;13.20;99.90;;;;;;4936722;29;20455;-70
2023/04/28 05:00:52;;;;;;;0.60;0.10;;;13.20;99.90;;;;;;4937182;29;20474;-70
2023/04/28 05:03:20;;;;;;;0.60;0.10;;;13.20;99.90;;;;;;4928480;29;20973;-70
2023/04/28 05:05:48;;;;;;;0.60;0.10;;;13.20;99.90;;;;;;4917750;29;20554;-70
2023/04/28 05:08:16;;;;;;;0.60;0.10;;;13.20;99.90;;;;;;4917927;29;20457;-70
2023/04/28 05:10:45;;;;;;;0.60;0.27;;;13.20;99.90;;;;;;4918248;29;20468;-70
2023/04/28 05:13:13;;;;;;;1.17;1.07;;;13.20;99.90;;;;;;4917973;29;20449;-70
2023/04/28 05:15:41;;;;;;;0.70;0.43;;;13.10;99.90;;;;;;4917954;29;20578;-70
2023/04/28 05:18:10;;;;;;;0.60;0.10;;;13.00;99.90;;;;;;4917876;29;20459;-71
2023/04/28 05:20:38;;;;;;;0.60;0.10;;;12.90;99.90;;;;;;4925416;29;20930;-70
2023/04/28 05:23:06;;;;;;;0.60;0.10;;;12.90;99.90;;;;;;4936093;29;20440;-70
2023/04/28 05:25:34;;;;;;;0.70;0.40;;;12.90;99.90;;;;;;4936582;29;20460;-70
2023/04/28 05:28:06;;;;;;;0.60;0.10;;;12.80;99.90;;;;;;4936179;29;20950;-70
2023/04/28 05:30:34;;;;;;;0.73;0.67;;;12.80;99.90;;;;;;4936221;29;20481;-71
2023/04/28 05:33:02;;;;;;;0.90;0.20;;;12.60;99.90;;;;;;4936267;29;20452;-71
2023/04/28 05:35:30;;;;;;;0.60;0.10;;;12.60;99.90;;;;;;4933780;29;20526;-71
2023/04/28 05:37:58;;;;;;;0.60;0.30;;;12.60;99.90;;;;;;4935805;29;20462;-70
2023/04/28 05:40:27;;;;;;;1.83;0.50;;;12.50;99.90;;;;;;4935897;29;20452;-71
2023/04/28 05:42:55;;;;;;;0.73;0.73;;;12.50;99.90;;;;;;4935825;29;20468;-70
2023/04/28 05:45:25;;;;;;;0.60;0.10;;;12.50;99.90;;;;;;4916888;29;20459;-70
2023/04/28 05:47:53;;;;;;;0.60;0.10;;;12.40;99.90;;;;;;4930082;29;20504;-70
2023/04/28 05:50:21;;;;;;;0.60;0.10;;;12.40;99.90;;;;;;4936002;29;20447;-70
2023/04/28 05:52:49;;;;;;;0.60;0.20;;;12.40;99.90;;;;;;4931611;29;20463;-70
2023/04/28 05:55:17;;;;;;;0.60;0.10;;;12.40;99.90;;;;;;4934761;29;20828;-71
2023/04/28 05:57:45;;;;;;;0.60;0.10;;;12.40;99.90;;;;;;4934336;29;20942;-70
2023/04/28 06:00:20;;;;;;;0.60;0.10;;;12.50;99.90;;;;;;4935345;29;20475;-71
2023/04/28 06:02:49;;;;;;;0.60;0.10;;;12.50;99.90;;;;;;4936316;29;20523;-70
2023/04/28 06:05:17;;;;;;;0.60;0.10;;;12.50;99.90;;;;;;4933661;29;20461;-70
2023/04/28 06:07:46;;;;;;;0.60;0.10;;;12.50;99.90;;;;;;4934429;29;20464;-71
2023/04/28 06:10:17;;;;;;;0.60;0.10;;;12.40;99.90;;;;;;4932033;29;20447;-71
2023/04/28 06:12:45;;;;;;;0.60;0.10;;;12.50;99.90;;;;;;4935922;29;20443;-72
2023/04/28 06:15:12;;;;;;;0.60;0.10;;;12.50;99.90;;;;;;4933724;29;20484;-72
2023/04/28 06:17:41;;;;;;;0.60;0.10;;;12.40;99.90;;;;;;4926516;29;20469;-71
2023/04/28 06:20:12;;;;;;;0.60;0.10;;;12.40;99.90;;;;;;4935951;29;20458;-71
2023/04/28 06:22:40;;;;;;;0.60;0.20;;;12.30;99.90;;;;;;4932783;29;20472;-71
2023/04/28 06:25:09;;;;;;;0.60;0.10;;;12.30;99.90;;;;;;4933326;29;20465;-70
2023/04/28 06:27:37;;;;;;;0.60;0.20;;;12.30;99.90;;;;;;4931146;29;20450;-71
2023/04/28 06:30:06;;;;;;;0.60;0.10;;;12.20;99.90;;;;;;4932648;29;20468;-70
2023/04/28 06:32:33;;;;;;;0.60;0.37;;;12.20;99.90;;;;;;4930766;29;20483;-70
2023/04/28 06:35:05;;;;;;;1.07;0.97;;;;;;;;;;4920590;29;20575;-72
2023/04/28 06:37:35;;;;;;;0.60;0.10;;;12.30;99.90;;;;;;4926861;29;21018;-71
2023/04/28 06:40:03;;;;;;;0.60;0.10;;;12.30;99.90;;;;;;4930750;29;20462;-71
2023/04/28 06:42:31;;;;;;;0.60;0.10;;;12.30;99.90;;;;;;4925827;29;20495;-71
2023/04/28 06:44:59;;;;;;;0.60;0.10;;;12.40;99.90;;;;;;4925171;29;20853;-71
2023/04/28 06:47:27;;;;;;;0.60;0.10;;;12.40;99.90;;;;;;4928443;29;20960;-72
2023/04/28 06:49:55;;;;;;;0.60;0.10;;;12.50;99.90;;;;;;4928479;29;20480;-71
2023/04/28 06:52:22;;;;;;;0.60;0.10;;;12.50;99.90;;;;;;4927657;29;20484;-71
2023/04/28 06:55:08;;;;;;;0.60;0.10;;;12.50;99.90;;;;;;4927982;29;20489;-71
2023/04/28 06:57:36;;;;;;;0.60;0.10;;;12.40;99.90;;;;;;4931821;29;20436;-70
2023/04/28 07:00:06;;;;;;;0.60;0.10;;;12.50;99.90;;;;;;4932348;29;20467;-70
2023/04/28 07:02:35;;;;;;;0.60;0.20;;;12.40;99.90;;;;;;4927026;29;20560;-72
2023/04/28 07:05:04;;;;;;;0.60;0.10;;;12.30;99.90;;;;;;4931297;29;20441;-72
2023/04/28 07:07:32;;;;;;;0.60;0.20;;;12.30;99.90;;;;;;4934512;29;20992;-71
2023/04/28 07:10:00;;;;;;;0.60;0.20;;;12.30;99.90;;;;;;4933007;29;20498;-70
2023/04/28 07:12:30;;;;;;;0.60;0.10;;;12.30;99.90;;;;;;4932984;29;20478;-72
2023/04/28 07:14:57;;;;;;;3.70;3.50;;;12.20;99.90;;;;;;4918145;29;20991;-71
2023/04/28 07:17:25;;;;;;;0.60;0.10;;;12.10;99.90;;;;;;4930955;29;20464;-71
2023/04/28 07:19:53;;;;;;;0.60;0.10;;;12.10;99.90;;;;;;4929205;29;20493;-71
2023/04/28 07:22:21;;;;;;;0.60;0.10;;;12.10;99.90;;;;;;4925181;29;20462;-72
2023/04/28 07:24:49;;;;;;;0.70;0.50;;;12.20;99.90;;;;;;4931621;29;20449;-71
2023/04/28 07:27:17;;;;;;;0.60;0.10;;;12.20;99.90;;;;;;4916372;29;20458;-71
2023/04/28 07:29:47;;;;;;;0.60;0.10;;;;;;;;;;4921860;29;20460;-71
2023/04/28 07:32:15;;;;;;;0.60;0.20;;;12.10;99.90;;;;;;4924888;29;20489;-71
2023/04/28 07:34:43;;;;;;;0.60;0.23;;;12.10;99.90;;;;;;4921443;29;20471;-71
2023/04/28 07:37:11;;;;;;;0.70;0.33;;;12.10;99.90;;;;;;4916389;29;20817;-71
2023/04/28 07:39:40;;;;;;;0.60;0.30;;;12.10;99.90;;;;;;4916215;29;21048;-70
2023/04/28 07:42:08;;;;;;;0.60;0.10;;;12.10;99.90;;;;;;4928334;29;21012;-71
2023/04/28 07:44:36;;;;;;;0.60;0.10;;;12.10;99.90;;;;;;4928784;29;20466;-72
2023/04/28 07:47:05;;;;;;;0.60;0.10;;;12.10;99.90;;;;;;4927028;29;20643;-72
2023/04/28 07:49:33;;;;;;;0.60;0.10;;;12.10;99.90;;;;;;4933417;29;20480;-71
2023/04/28 07:52:01;;;;;;;0.97;0.50;;;12.10;99.90;;;;;;4926512;29;20490;-72
2023/04/28 07:54:29;;;;;;;0.60;0.30;;;;;;;;;;4930387;29;20838;-70
2023/04/28 07:56:57;;;;;;;0.60;0.10;;;12.20;99.90;;;;;;4931885;29;20617;-71
2023/04/28 07:59:25;;;;;;;20.20;9.70;;;12.30;99.90;;;;;;4928141;29;20445;-71
2023/04/28 08:01:53;;;;;;;0.60;0.10;;;12.30;99.90;;;;;;4927848;29;20474;-71
2023/04/28 08:04:22;;;;;;;0.60;0.10;;;12.30;99.90;;;;;;4930196;29;20447;-71
2023/04/28 08:06:51;;;;;;;0.60;0.10;;;12.30;99.90;;;;;;4930035;29;20881;-71
2023/04/28 08:09:19;;;;;;;0.60;0.10;;;12.40;99.90;;;;;;4935572;29;20521;-70
2023/04/28 08:11:47;;;;;;;0.60;0.10;;;12.50;99.90;;;;;;4932959;29;21111;-71
2023/04/28 08:14:15;;;;;;;0.60;0.30;;;12.50;99.90;;;;;;4932194;29;20457;-71
2023/04/28 08:16:44;;;;;;;0.60;0.10;;;12.50;99.90;;;;;;4927535;29;20491;-70
2023/04/28 08:19:12;;;;;;;0.60;0.10;;;12.50;99.90;;;;;;4927076;29;20937;-70
2023/04/28 08:21:41;;;;;;;0.60;0.10;;;15.20;99.90;;;;;;4927305;29;20481;-69
2023/04/28 08:24:10;;;;;;;0.60;0.10;;;12.80;99.90;;;;;;4927524;29;20526;-71
2023/04/28 08:26:38;;;;;;;0.60;0.10;;;12.80;99.90;;;;;;4926685;29;20462;-71
2023/04/28 08:29:06;;;;;;;0.60;0.20;;;12.80;99.90;;;;;;4927782;29;20467;-71
2023/04/28 08:31:34;;;;;;;0.60;0.10;;;12.90;99.90;;;;;;4934186;29;20557;-71
2023/04/28 08:34:02;;;;;;;2.57;2.47;;;12.80;99.90;;;;;;4930364;29;20459;-71
2023/04/28 08:36:31;;;;;;;0.60;0.10;;;12.80;99.90;;;;;;4931263;29;20487;-71
2023/04/28 08:39:02;;;;;;;0.60;0.10;;;12.90;99.90;;;;;;4930437;29;20829;-71
2023/04/28 08:41:32;;;;;;;0.60;0.10;;;12.90;99.90;;;;;;4932658;29;20470;-71
2023/04/28 08:44:00;;;;;;;0.60;0.10;;;12.90;99.90;;;;;;4928250;29;20470;-71
2023/04/28 08:46:29;;;;;;;0.60;0.10;;;12.90;99.90;;;;;;4919537;29;20471;-71
2023/04/28 08:49:01;;;;;;;0.60;0.10;;;12.90;99.90;;;;;;4932611;29;20868;-71
2023/04/28 08:51:34;;;;;;;0.60;0.10;;;12.90;99.90;;;;;;4937016;29;20565;-71
2023/04/28 08:54:04;;;;;;;0.60;0.10;;;;;;;;;;4926307;29;20468;-71
2023/04/28 08:56:38;;;;;;;0.60;0.10;;;12.90;99.90;;;;;;4936139;29;20477;-72
2023/04/28 08:59:07;;;;;;;0.60;0.10;;;12.90;99.90;;;;;;4932719;29;20497;-71
2023/04/28 09:01:35;;;;;;;0.60;0.10;;;12.90;99.90;;;;;;4937635;29;20490;-72
2023/04/28 09:04:03;;;;;;;0.60;0.10;;;12.90;99.90;;;;;;4923563;29;20538;-71
2023/04/28 09:06:34;;;;;;;0.60;0.10;;;13.20;99.90;;;;;;4922889;29;20454;-71
2023/04/28 09:09:24;;;;;;;0.60;0.10;;;13.00;99.90;;;;;;4928696;29;20453;-71
2023/04/28 09:11:54;;;;;;;0.60;0.10;;;13.00;99.90;;;;;;4933850;29;20475;-71
2023/04/28 09:14:22;;;;;;;0.60;0.10;;;13.10;99.90;;;;;;4937546;29;20454;-71
2023/04/28 09:16:50;;;;;;;0.60;0.10;;;13.10;99.90;;;;;;4937020;29;20478;-71
2023/04/28 09:19:18;;;;;;;1.33;1.23;;;13.20;99.90;;;;;;4930025;29;20474;-71
2023/04/28 09:21:48;;;;;;;0.60;0.10;;;13.20;99.90;;;;;;4929762;29;20487;-70
2023/04/28 09:24:35;;;;;;;0.60;0.10;;;13.20;99.90;;;;;;4935411;29;20456;-71
2023/04/28 09:27:04;;;;;;;0.60;0.10;;;;;;;;;;4932468;29;20455;-71
2023/04/28 09:29:32;;;;;;;0.60;0.10;;;13.10;99.90;;;;;;4923106;29;20839;-71
2023/04/28 09:32:17;;;;;;;0.60;0.10;;;13.10;99.90;;;;;;4925167;29;21036;-71
2023/04/28 09:34:47;;;;;;;1.27;0.57;;;13.20;99.90;;;;;;4934142;29;20450;-71
2023/04/28 09:37:16;;;;;;;0.60;0.10;;;13.30;99.90;;;;;;4937558;29;20489;-71
2023/04/28 09:39:48;;;;;;;0.60;0.17;;;13.30;99.90;;;;;;4937759;29;20535;-71
2023/04/28 09:42:33;;;;;;;0.60;0.10;;;13.40;99.90;;;;;;4931987;29;20481;-71
2023/04/28 09:45:02;;;;;;;0.60;0.10;;;13.30;99.90;;;;;;4918119;29;20455;-72
2023/04/28 09:47:32;;;;;;;0.60;0.10;;;13.40;99.90;;;;;;4918582;29;20459;-71
2023/04/28 09:50:02;;;;;;;0.60;0.10;;;13.50;99.90;;;;;;4918289;29;20455;-72
2023/04/28 09:52:29;;;;;;;0.60;0.10;;;13.50;99.90;;;;;;4917650;29;20559;-72
2023/04/28 09:55:01;;;;;;;0.60;0.10;;;13.50;99.90;;;;;;4925732;29;20450;-72
2023/04/28 09:57:32;;;;;;;0.60;0.10;;;13.60;99.90;;;;;;4937232;29;20492;-70
2023/04/28 10:00:01;;;;;;;1.00;0.77;;;13.70;99.90;;;;;;4925333;29;21005;-71
2023/04/28 10:02:29;;;;;;;0.60;0.10;;;13.70;99.90;;;;;;4919999;29;20571;-71
2023/04/28 10:05:00;;;;;;;0.60;0.10;;;13.70;99.90;;;;;;4933614;29;20947;-71
2023/04/28 10:07:34;;;;;;;0.60;0.10;;;13.70;99.90;;;;;;4929708;29;20453;-70
2023/04/28 10:10:04;;;;;;;0.60;0.10;;;13.70;99.90;;;;;;4934627;29;20938;-72
2023/04/28 10:12:33;;;;;;;0.60;0.10;;;13.90;99.90;;;;;;4938059;29;21015;-71
2023/04/28 10:15:02;;;;;;;0.60;0.10;;;14.00;99.90;;;;;;4937602;29;20491;-72
2023/04/28 10:17:30;;;;;;;0.60;0.10;;;14.00;99.90;;;;;;4937442;29;20476;-71
2023/04/28 10:19:57;;;;;;;4.30;2.33;;;14.00;99.90;;;;;;4937311;29;20553;-71
2023/04/28 10:22:46;;;;;;;0.60;0.10;;;14.20;99.90;;;;;;4925241;29;20499;-72
2023/04/28 10:25:26;;;;;;;0.60;0.10;;;14.30;99.90;;;;;;4938703;29;20445;-71
2023/04/28 10:27:54;;;;;;;0.60;0.10;;;14.40;99.90;;;;;;4936376;29;20473;-71
2023/04/28 10:30:24;;;;;;;3.60;2.53;;;14.40;99.90;;;;;;4931923;29;20451;-71
2023/04/28 10:33:24;;;;;;;0.60;0.10;;;14.50;99.90;;;;;;4933988;29;20537;-72
2023/04/28 10:35:59;;;;;;;1.63;0.30;;;;;;;;;;4939055;29;20444;-72
2023/04/28 10:38:31;;;;;;;0.70;0.30;;;;;;;;;;4938357;29;20566;-71
2023/04/28 10:41:01;;;;;;;0.60;0.10;;;;;;;;;;4939996;29;20508;-71
2023/04/28 10:43:40;;;;;;;1.73;0.77;;;15.10;99.90;;;;;;4936528;29;20458;-72
2023/04/28 10:46:11;;;;;;;0.60;0.10;;;15.20;99.90;;;;;;4937454;29;20461;-72
2023/04/28 10:49:00;;;;;;;0.60;0.20;;;15.20;99.90;;;;;;4938241;29;20472;-72
2023/04/28 10:51:30;;;;;;;0.60;0.10;;;15.40;99.90;;;;;;4934404;29;20501;-72
2023/04/28 10:54:08;;;;;;;0.60;0.13;;;15.50;99.90;;;;;;4931118;29;20487;-71
2023/04/28 10:56:39;;;;;;;0.60;0.10;;;15.60;99.90;;;;;;4934100;29;20457;-72
2023/04/28 10:59:27;;;;;;;0.60;0.13;;;15.70;99.90;;;;;;4933245;29;20505;-70
2023/04/28 11:01:55;;;;;;;2.20;2.10;;;;;;;;;;4935816;29;20479;-71
2023/04/28 11:04:23;;;;;;;0.60;0.10;;;15.70;99.90;;;;;;4936156;29;20472;-73
2023/04/28 11:07:10;;;;;;;0.70;0.30;;;15.70;99.90;;;;;;4927568;29;20448;-72
2023/04/28 11:09:48;;;;;;;1.07;1.07;;;15.70;99.90;;;;;;4918461;29;20475;-71
2023/04/28 11:12:18;;;;;;;0.60;0.10;;;15.90;99.90;;;;;;4935278;29;20463;-72
2023/04/28 11:14:47;;;;;;;1.27;1.17;;;16.00;99.90;;;;;;4928842;29;20463;-72
2023/04/28 11:17:18;;;;;;;0.70;0.40;;;16.10;99.90;;;;;;4919985;29;20600;-72
2023/04/28 11:19:47;;;;;;;0.60;0.10;;;16.20;99.90;;;;;;4932019;29;20466;-72
2023/04/28 11:22:16;;;;;;;0.60;0.13;;;16.30;99.90;;;;;;4933502;29;20479;-72
2023/04/28 11:24:56;;;;;;;1.30;1.17;;;16.20;99.90;;;;;;4933441;29;20458;-71
2023/04/28 11:27:26;;;;;;;0.60;0.13;;;16.20;99.90;;;;;;4934817;29;20518;-72
2023/04/28 11:29:54;;;;;;;0.60;0.30;;;16.20;99.90;;;;;;4935578;29;20470;-71
2023/04/28 11:32:28;;;;;;;0.60;0.20;;;16.40;99.90;;;;;;4927126;29;20677;-72
2023/04/28 11:34:56;;;;;;;1.70;1.50;;;16.40;99.90;;;;;;4916313;29;20505;-72
2023/04/28 11:37:24;;;;;;;0.60;0.20;;;16.40;99.90;;;;;;4916602;29;20491;-72
2023/04/28 11:39:52;;;;;;;0.80;0.53;;;16.20;99.90;;;;;;4916282;29;20468;-72
2023/04/28 11:42:20;;;;;;;0.60;0.30;;;16.20;99.90;;;;;;4925164;29;20478;-72
2023/04/28 11:44:53;;;;;;;2.00;1.90;;;16.30;99.90;;;;;;4931614;29;20513;-71
2023/04/28 11:47:32;;;;;;;0.60;0.10;;;16.40;99.90;;;;;;4929185;29;20451;-72
2023/04/28 11:50:01;;;;;;;0.60;0.13;;;16.50;99.90;;;;;;4933051;29;20986;-72
2023/04/28 11:52:30;;;;;;;0.60;0.10;;;16.70;99.90;;;;;;4935032;29;20463;-72
2023/04/28 11:55:00;;;;;;;0.60;0.30;;;;;;;;;;4933323;29;20459;-72
2023/04/28 11:57:30;;;;;;;0.83;0.67;;;16.90;99.90;;;;;;4927989;29;20503;-72
2023/04/28 12:00:18;;;;;;;0.70;0.50;;;17.10;99.90;;;;;;4934572;29;20947;-71
2023/04/28 12:02:46;;;;;;;16.70;15.10;;;17.30;99.90;;;;;;4934583;29;20455;-72
2023/04/28 12:05:14;;;;;;;1.17;0.60;;;17.40;99.90;;;;;;4934957;29;21009;-72
2023/04/28 12:07:44;;;;;;;0.90;0.30;;;17.50;99.90;;;;;;4933111;29;20458;-72
2023/04/28 12:10:14;;;;;;;0.60;0.10;;;17.50;99.90;;;;;;4916670;29;20457;-72
2023/04/28 12:12:44;;;;;;;0.60;0.20;;;17.50;99.90;;;;;;4916489;29;20456;-71
2023/04/28 12:15:23;;;;;;;1.60;1.50;;;17.70;99.90;;;;;;4917484;29;20503;-71
2023/04/28 12:17:51;;;;;;;0.60;0.40;;;17.50;99.90;;;;;;4927599;29;20581;-72
2023/04/28 12:20:36;;;;;;;2.40;0.90;;;17.60;99.90;;;;;;4923504;29;20441;-72
2023/04/28 12:23:06;;;;;;;0.60;0.30;;;17.60;99.90;;;;;;4916954;29;20465;-70
2023/04/28 12:25:42;;;;;;;0.60;0.10;;;17.70;99.90;;;;;;4916596;29;20452;-72
2023/04/28 12:28:10;;;;;;;0.60;0.20;;;17.90;99.90;;;;;;4915844;29;20546;-72
2023/04/28 12:30:40;;;;;;;0.60;0.10;;;18.00;99.90;;;;;;4915721;29;20558;-72
2023/04/28 12:33:23;;;;;;;0.60;0.10;;;18.00;99.90;;;;;;4923013;29;20458;-71
2023/04/28 12:35:51;;;;;;;0.60;0.30;;;18.00;99.90;;;;;;4938459;29;20478;-71
2023/04/28 12:38:19;;;;;;;5.03;1.47;;;18.00;99.90;;;;;;4937487;29;20508;-71
2023/04/28 12:40:46;;;;;;;2.03;1.93;;;17.90;99.90;;;;;;4938664;29;20471;-71
2023/04/28 12:43:14;;;;;;;2.97;2.77;;;17.90;99.90;;;;;;4927823;29;20465;-71
2023/04/28 12:45:43;;;;;;;4.50;2.20;;;18.00;99.90;;;;;;4918845;29;20461;-70
2023/04/28 12:48:11;;;;;;;0.60;0.20;;;18.00;99.90;;;;;;4921776;29;20452;-71
2023/04/28 12:50:39;;;;;;;0.60;0.10;;;18.00;99.90;;;;;;4932605;29;21101;-75
2023/04/28 12:53:07;;;;;;;2.10;1.10;;;18.20;99.90;;;;;;4937365;29;20455;-71
2023/04/28 12:55:35;;;;;;;0.60;0.20;;;18.30;99.90;;;;;;4936250;29;20635;-71
2023/04/28 12:58:03;;;;;;;0.93;0.40;;;18.50;99.90;;;;;;4938116;29;20891;-72
2023/04/28 13:00:30;;;;;;;0.90;0.30;;;18.50;99.90;;;;;;4939241;29;20470;-72
2023/04/28 13:03:00;;;;;;;0.60;0.30;;;18.50;99.90;;;;;;4935896;29;21014;-73
2023/04/28 13:05:28;;;;;;;1.60;1.50;;;18.50;99.90;;;;;;4937190;29;20947;-73
2023/04/28 13:07:56;;;;;;;1.47;1.13;;;18.40;99.90;;;;;;4937473;29;20451;-74
2023/04/28 13:10:25;;;;;;;0.70;0.40;;;18.20;99.90;;;;;;4941001;29;20452;-71
2023/04/28 13:12:53;;;;;;;0.60;0.10;;;18.20;99.90;;;;;;4937284;29;20447;-73
2023/04/28 13:15:21;;;;;;;1.23;1.13;;;18.30;99.90;;;;;;4937680;29;20515;-71
2023/04/28 13:17:49;;;;;;;0.90;0.40;;;18.50;99.90;;;;;;4928675;29;20463;-71
2023/04/28 13:20:19;;;;;;;1.70;1.60;;;18.50;99.90;;;;;;4919749;29;20488;-70
2023/04/28 13:22:47;;;;;;;0.60;0.30;;;18.60;99.90;;;;;;4919053;29;20459;-72
2023/04/28 13:25:15;;;;;;;2.87;2.77;;;18.80;99.90;;;;;;4918761;29;20460;-71
2023/04/28 13:27:42;;;;;;;1.07;0.97;;;19.00;99.90;;;;;;4923864;29;20515;-72
2023/04/28 13:30:12;;;;;;;0.67;0.37;;;19.00;99.90;;;;;;4937161;29;20812;-71
2023/04/28 13:32:39;;;;;;;0.60;0.10;;;19.00;99.90;;;;;;4923016;29;20472;-72
2023/04/28 13:35:08;;;;;;;0.60;0.10;;;19.10;99.90;;;;;;4937942;29;20550;-72
2023/04/28 13:37:41;;;;;;;0.73;0.37;;;19.20;99.90;;;;;;4939274;29;20477;-72
2023/04/28 13:40:11;;;;;;;0.60;0.10;;;19.10;99.90;;;;;;4938646;29;20509;-72
2023/04/28 13:42:38;;;;;;;0.60;0.10;;;19.00;99.90;;;;;;4937916;29;20503;-72
2023/04/28 13:45:07;;;;;;;1.17;1.07;;;19.00;99.90;;;;;;4938030;29;20515;-72
2023/04/28 13:47:35;;;;;;;0.60;0.20;;;18.80;99.90;;;;;;4937803;29;20990;-71
2023/04/28 13:50:03;;;;;;;0.60;0.10;;;18.80;99.90;;;;;;4937316;29;20443;-72
2023/04/28 13:52:31;;;;;;;1.27;0.53;;;18.60;99.90;;;;;;4935403;29;20587;-71
2023/04/28 13:55:00;;;;;;;1.17;0.80;;;18.50;99.90;;;;;;4938184;29;20450;-71
2023/04/28 13:57:28;;;;;;;0.60;0.17;;;18.40;99.90;;;;;;4938621;29;20451;-71
2023/04/28 13:59:56;;;;;;;1.10;0.57;;;18.30;99.90;;;;;;4938900;29;20499;-71
2023/04/28 14:02:26;;;;;;;0.80;0.77;;;;;;;;;;4925011;29;20494;-72
2023/04/28 14:04:54;;;;;;;0.60;0.20;;;18.10;99.90;;;;;;4933977;29;20514;-71
2023/04/28 14:07:22;;;;;;;0.60;0.30;;;18.00;99.90;;;;;;4937169;29;20451;-71
2023/04/28 14:09:50;;;;;;;0.60;0.27;;;18.20;99.90;;;;;;4936927;29;20985;-72
2023/04/28 14:12:20;;;;;;;0.60;0.30;;;18.30;99.90;;;;;;4918226;29;20563;-71
2023/04/28 14:14:48;;;;;;;0.60;0.20;;;18.30;99.90;;;;;;4917447;29;20460;-71
2023/04/28 14:17:16;;;;;;;0.60;0.10;;;18.40;99.90;;;;;;4918021;29;20848;-71
2023/04/28 14:19:44;;;;;;;0.60;0.10;;;18.40;99.90;;;;;;4917344;29;20497;-72
2023/04/28 14:22:12;;;;;;;0.60;0.20;;;18.40;99.90;;;;;;4926932;29;20479;-70
2023/04/28 14:25:01;;;;;;;0.60;0.10;;;;;;;;;;4935912;29;21041;-73
2023/04/28 14:27:31;;;;;;;0.60;0.10;;;18.30;99.90;;;;;;4936394;29;20459;-71
2023/04/28 14:29:59;;;;;;;0.60;0.20;;;18.10;99.90;;;;;;4916789;29;20453;-70
2023/04/28 14:32:27;;;;;;;0.60;0.20;;;18.10;99.90;;;;;;4928333;29;20467;-72
2023/04/28 14:34:56;;;;;;;0.60;0.13;;;18.10;99.90;;;;;;4928687;29;20452;-71
2023/04/28 14:37:24;;;;;;;0.60;0.10;;;18.10;99.90;;;;;;4916711;29;20531;-71
2023/04/28 14:39:52;;;;;;;0.60;0.20;;;18.20;99.90;;;;;;4917048;29;20927;-70
2023/04/28 14:42:21;;;;;;;0.60;0.20;;;18.20;99.90;;;;;;4917831;29;20470;-71
2023/04/28 14:44:50;;;;;;;0.70;0.30;;;18.30;99.90;;;;;;4917508;29;20478;-72
2023/04/28 14:47:21;;;;;;;0.60;0.10;;;18.30;99.90;;;;;;4935762;29;20479;-73
2023/04/28 14:49:49;;;;;;;0.60;0.10;;;18.50;99.90;;;;;;4936379;29;20450;-71
2023/04/28 14:52:17;;;;;;;0.60;0.10;;;18.70;99.90;;;;;;4934982;29;20495;-71
2023/04/28 14:54:44;;;;;;;0.60;0.37;;;18.80;99.90;;;;;;4931885;29;20468;-73
2023/04/28 14:57:13;;;;;;;0.60;0.10;;;19.00;99.90;;;;;;4930104;29;20503;-71
2023/04/28 14:59:41;;;;;;;0.60;0.10;;;19.00;99.90;;;;;;4931361;29;20487;-71
2023/04/28 15:02:11;;;;;;;0.60;0.10;;;;;;;;;;4927900;29;20529;-72
2023/04/28 15:04:39;;;;;;;0.60;0.10;;;19.10;99.90;;;;;;4931493;29;20464;-72
2023/04/28 15:07:08;;;;;;;0.60;0.10;;;19.10;99.90;;;;;;4927519;29;20959;-70
2023/04/28 15:09:35;;;;;;;0.60;0.10;;;19.00;99.90;;;;;;4931481;29;20456;-69
2023/04/28 15:12:04;;;;;;;0.60;0.10;;;18.80;99.90;;;;;;4922905;29;20476;-68
2023/04/28 15:14:32;;;;;;;0.60;0.10;;;18.90;99.90;;;;;;4915572;29;20476;-67
2023/04/28 15:17:00;;;;;;;0.60;0.10;;;18.80;99.90;;;;;;4928465;29;20467;-74
2023/04/28 15:19:31;;;;;;;0.60;0.10;;;18.80;99.90;;;;;;4934423;29;21163;-73
2023/04/28 15:21:59;;;;;;;1.07;0.97;;;18.80;99.90;;;;;;4933942;29;20471;-73
2023/04/28 15:24:27;;;;;;;1.00;0.50;;;18.70;99.90;;;;;;4934268;29;20462;-74
2023/04/28 15:26:55;;;;;;;0.60;0.20;;;18.60;99.90;;;;;;4935007;29;20451;-72
2023/04/28 15:29:34;;;;;;;0.60;0.20;;;18.50;99.90;;;;;;4929031;29;20448;-73
2023/04/28 15:32:07;;;;;;;0.60;0.10;;;18.50;99.90;;;;;;4917857;29;20487;-72
2023/04/28 15:34:37;;;;;;;0.60;0.10;;;18.50;99.90;;;;;;4917643;29;20440;-73
2023/04/28 15:37:32;;;;;;;0.60;0.10;;;18.60;99.90;;;;;;4919684;29;20497;-73
2023/04/28 15:40:00;;;;;;;0.60;0.10;;;18.50;99.90;;;;;;4929022;29;21063;-72
2023/04/28 15:42:28;;;;;;;0.60;0.10;;;18.50;99.90;;;;;;4926103;29;20474;-73
2023/04/28 15:44:56;;;;;;;0.60;0.20;;;18.50;99.90;;;;;;4929997;29;20972;-73
2023/04/28 15:47:24;;;;;;;0.60;0.10;;;18.50;99.90;;;;;;4933679;29;20449;-72
2023/04/28 15:49:53;;;;;;;0.60;0.20;;;18.50;99.90;;;;;;4928116;29;20494;-73
2023/04/28 15:52:22;;;;;;;0.60;0.10;;;18.50;99.90;;;;;;4931100;29;20896;-73
2023/04/28 15:54:50;;;;;;;0.60;0.10;;;18.50;99.90;;;;;;4934776;29;20454;-73
2023/04/28 15:57:18;;;;;;;0.60;0.10;;;18.50;99.90;;;;;;4935049;29;20478;-72
2023/04/28 15:59:46;;;;;;;0.60;0.10;;;18.50;99.90;;;;;;4934920;29;21004;-73
2023/04/28 16:02:14;;;;;;;0.60;0.10;;;18.50;99.90;;;;;;4933954;29;20614;-73
2023/04/28 16:04:42;;;;;;;0.60;0.20;;;18.50;99.90;;;;;;4915099;29;20950;-72
2023/04/28 16:07:11;;;;;;;0.60;0.10;;;18.50;99.90;;;;;;4919158;29;20462;-73
2023/04/28 16:09:39;;;;;;;0.60;0.10;;;18.50;99.90;;;;;;4919132;29;20455;-73
2023/04/28 16:12:07;;;;;;;0.60;0.20;;;18.50;99.90;;;;;;4919035;29;20593;-75
2023/04/28 16:14:35;;;;;;;0.60;0.10;;;18.40;99.90;;;;;;4918655;29;20448;-73
2023/04/28 16:17:03;;;;;;;0.60;0.10;;;18.40;99.90;;;;;;4919580;29;20448;-73
2023/04/28 16:19:31;;;;;;;0.60;0.13;;;18.40;99.90;;;;;;4919235;29;20821;-73
2023/04/28 16:22:00;;;;;;;0.60;0.10;;;18.40;99.90;;;;;;4919094;29;20476;-74
2023/04/28 16:24:30;;;;;;;0.60;0.10;;;18.50;99.90;;;;;;4919535;29;20999;-74
2023/04/28 16:26:59;;;;;;;0.73;0.20;;;18.50;99.90;;;;;;4919472;29;20571;-72
2023/04/28 16:29:26;;;;;;;0.60;0.10;;;17.80;99.90;;;;;;4919551;29;20462;-72
2023/04/28 16:31:55;;;;;;;0.60;0.20;;;18.40;99.90;;;;;;4918694;29;20467;-73
2023/04/28 16:34:23;;;;;;;0.60;0.10;;;18.50;99.90;;;;;;4934686;29;20463;-73
2023/04/28 16:36:51;;;;;;;0.60;0.10;;;18.50;99.90;;;;;;4922150;29;20508;-73
2023/04/28 16:39:19;;;;;;;0.60;0.20;;;18.50;99.90;;;;;;4918806;29;20824;-72
2023/04/28 16:41:48;;;;;;;0.60;0.10;;;18.50;99.90;;;;;;4918597;29;20968;-73
2023/04/28 16:44:16;;;;;;;0.60;0.20;;;18.50;99.90;;;;;;4917893;29;20448;-72
2023/04/28 16:46:44;;;;;;;0.60;0.10;;;18.60;99.90;;;;;;4918720;29;20452;-73
2023/04/28 16:49:12;;;;;;;0.60;0.10;;;18.60;99.90;;;;;;4918793;29;20452;-74
2023/04/28 16:51:40;;;;;;;0.60;0.20;;;18.50;99.90;;;;;;4918302;29;20532;-72
2023/04/28 16:54:07;;;;;;;0.70;0.40;;;18.60;99.90;;;;;;4918709;29;20456;-73
2023/04/28 16:56:37;;;;;;;0.60;0.10;;;18.60;99.90;;;;;;4917894;29;20453;-73
2023/04/28 16:59:06;;;;;;;0.70;0.30;;;18.80;99.90;;;;;;4918619;29;20504;-72
2023/04/28 17:01:34;;;;;;;2.10;1.50;;;19.10;99.90;;;;;;4917648;29;20499;-74
2023/04/28 17:04:05;;;;;;;0.60;0.10;;;19.30;99.90;;;;;;4931612;29;20455;-72